sensor_id;sensor_type;location;lat;lon;timestamp;P1;durP1;ratioP1;P2;durP2;ratioP2
53927;SDS011;39837;47.630;18.822;2023-06-14T08:52:10;1.90;;;1.80;;
53927;SDS011;39837;47.630;18.822;2023-06-14T08:54:56;2.33;;;2.15;;
53927;SDS011;39837;47.630;18.822;2023-06-14T08:57:41;2.83;;;2.00;;
53927;SDS011;39837;47.630;18.822;2023-06-14T09:00:25;1.73;;;1.70;;
53927;SDS011;39837;47.630;18.822;2023-06-14T09:05:57;1.75;;;1.65;;
53927;SDS011;39837;47.630;18.822;2023-06-14T09:08:42;1.92;;;1.83;;
53927;SDS011;39837;47.630;18.822;2023-06-14T09:11:30;2.75;;;2.20;;
53927;SDS011;39837;47.630;18.822;2023-06-14T09:14:14;2.08;;;1.98;;
53927;SDS011;39837;47.630;18.822;2023-06-14T09:16:59;1.67;;;1.67;;
53927;SDS011;39837;47.630;18.822;2023-06-14T09:19:42;5.10;;;1.73;;
53927;SDS011;39837;47.630;18.822;2023-06-14T09:22:29;1.52;;;1.42;;
53927;SDS011;39837;47.630;18.822;2023-06-14T09:25:13;2.83;;;1.73;;
53927;SDS011;39837;47.630;18.822;2023-06-14T09:27:59;2.03;;;1.40;;
53927;SDS011;39837;47.630;18.822;2023-06-14T09:30:43;2.15;;;1.98;;
53927;SDS011;39837;47.630;18.822;2023-06-14T09:33:27;1.67;;;1.58;;
53927;SDS011;39837;47.630;18.822;2023-06-14T09:36:12;2.05;;;1.50;;
53927;SDS011;39837;47.630;18.822;2023-06-14T09:38:58;3.97;;;1.48;;
53927;SDS011;39837;47.630;18.822;2023-06-14T09:41:49;2.17;;;1.92;;
53927;SDS011;39837;47.630;18.822;2023-06-14T09:44:33;2.22;;;2.03;;
53927;SDS011;39837;47.630;18.822;2023-06-14T09:47:18;4.43;;;1.80;;
53927;SDS011;39837;47.630;18.822;2023-06-14T09:50:02;2.50;;;2.33;;
53927;SDS011;39837;47.630;18.822;2023-06-14T09:52:46;1.92;;;1.70;;
53927;SDS011;39837;47.630;18.822;2023-06-14T09:55:31;2.90;;;1.83;;
53927;SDS011;39837;47.630;18.822;2023-06-14T09:58:20;7.40;;;2.22;;
53927;SDS011;39837;47.630;18.822;2023-06-14T10:01:07;3.78;;;2.22;;
53927;SDS011;39837;47.630;18.822;2023-06-14T10:09:33;1.67;;;1.40;;
53927;SDS011;39837;47.630;18.822;2023-06-14T10:12:17;1.95;;;1.85;;
53927;SDS011;39837;47.630;18.822;2023-06-14T10:15:04;3.10;;;2.50;;
53927;SDS011;39837;47.630;18.822;2023-06-14T10:17:55;4.70;;;1.80;;
53927;SDS011;39837;47.630;18.822;2023-06-14T10:20:46;1.70;;;1.60;;
53927;SDS011;39837;47.630;18.822;2023-06-14T10:23:52;2.50;;;1.83;;
53927;SDS011;39837;47.630;18.822;2023-06-14T10:26:40;1.48;;;1.48;;
53927;SDS011;39837;47.630;18.822;2023-06-14T10:32:52;1.98;;;1.85;;
53927;SDS011;39837;47.630;18.822;2023-06-14T10:35:51;2.30;;;2.10;;
53927;SDS011;39837;47.630;18.822;2023-06-14T10:41:55;3.88;;;2.10;;
53927;SDS011;39837;47.630;18.822;2023-06-14T10:44:58;1.98;;;1.77;;
53927;SDS011;39837;47.630;18.822;2023-06-14T10:47:44;1.60;;;1.60;;
53927;SDS011;39837;47.630;18.822;2023-06-14T10:50:32;4.72;;;2.17;;
53927;SDS011;39837;47.630;18.822;2023-06-14T10:56:08;1.35;;;1.35;;
53927;SDS011;39837;47.630;18.822;2023-06-14T10:58:52;5.70;;;2.20;;
53927;SDS011;39837;47.630;18.822;2023-06-14T11:01:38;1.40;;;1.40;;
53927;SDS011;39837;47.630;18.822;2023-06-14T11:04:31;3.28;;;1.67;;
53927;SDS011;39837;47.630;18.822;2023-06-14T11:07:30;2.05;;;1.77;;
53927;SDS011;39837;47.630;18.822;2023-06-14T11:10:43;4.30;;;1.85;;
53927;SDS011;39837;47.630;18.822;2023-06-14T11:13:29;1.13;;;1.13;;
53927;SDS011;39837;47.630;18.822;2023-06-14T11:16:13;7.53;;;1.73;;
53927;SDS011;39837;47.630;18.822;2023-06-14T11:19:00;1.48;;;1.45;;
53927;SDS011;39837;47.630;18.822;2023-06-14T11:21:47;1.08;;;1.08;;
53927;SDS011;39837;47.630;18.822;2023-06-14T11:24:32;1.27;;;1.27;;
53927;SDS011;39837;47.630;18.822;2023-06-14T11:27:16;1.67;;;1.67;;
53927;SDS011;39837;47.630;18.822;2023-06-14T11:30:01;2.88;;;1.80;;
53927;SDS011;39837;47.630;18.822;2023-06-14T11:32:46;1.35;;;1.35;;
53927;SDS011;39837;47.630;18.822;2023-06-14T11:35:33;5.15;;;1.90;;
53927;SDS011;39837;47.630;18.822;2023-06-14T11:38:18;9.07;;;1.45;;
53927;SDS011;39837;47.630;18.822;2023-06-14T11:41:02;1.45;;;1.05;;
53927;SDS011;39837;47.630;18.822;2023-06-14T11:43:46;1.63;;;1.52;;
53927;SDS011;39837;47.630;18.822;2023-06-14T11:46:30;1.60;;;1.50;;
53927;SDS011;39837;47.630;18.822;2023-06-14T11:49:14;1.42;;;1.13;;
53927;SDS011;39837;47.630;18.822;2023-06-14T11:51:58;1.98;;;1.88;;
53927;SDS011;39837;47.630;18.822;2023-06-14T11:54:42;1.40;;;1.35;;
53927;SDS011;39837;47.630;18.822;2023-06-14T11:57:26;1.17;;;1.17;;
53927;SDS011;39837;47.630;18.822;2023-06-14T12:00:10;2.38;;;1.52;;
53927;SDS011;39837;47.630;18.822;2023-06-14T12:05:40;1.02;;;1.02;;
53927;SDS011;39837;47.630;18.822;2023-06-14T12:08:24;1.40;;;1.30;;
53927;SDS011;39837;47.630;18.822;2023-06-14T12:11:22;1.15;;;1.15;;
53927;SDS011;39837;47.630;18.822;2023-06-14T12:14:07;0.93;;;0.93;;
53927;SDS011;39837;47.630;18.822;2023-06-14T12:16:52;1.13;;;1.13;;
53927;SDS011;39837;47.630;18.822;2023-06-14T12:19:48;1.02;;;1.02;;
53927;SDS011;39837;47.630;18.822;2023-06-14T12:22:33;4.05;;;1.50;;
53927;SDS011;39837;47.630;18.822;2023-06-14T12:25:28;2.00;;;1.42;;
53927;SDS011;39837;47.630;18.822;2023-06-14T12:28:12;1.00;;;1.00;;
53927;SDS011;39837;47.630;18.822;2023-06-14T12:30:57;3.20;;;1.08;;
53927;SDS011;39837;47.630;18.822;2023-06-14T12:33:42;1.30;;;1.20;;
53927;SDS011;39837;47.630;18.822;2023-06-14T12:36:26;1.45;;;1.35;;
53927;SDS011;39837;47.630;18.822;2023-06-14T12:39:11;1.17;;;1.17;;
53927;SDS011;39837;47.630;18.822;2023-06-14T12:41:55;1.00;;;1.00;;
53927;SDS011;39837;47.630;18.822;2023-06-14T12:44:39;1.30;;;1.30;;
53927;SDS011;39837;47.630;18.822;2023-06-14T12:47:24;1.75;;;1.13;;
53927;SDS011;39837;47.630;18.822;2023-06-14T12:50:08;3.00;;;1.25;;
53927;SDS011;39837;47.630;18.822;2023-06-14T12:52:52;1.42;;;1.38;;
53927;SDS011;39837;47.630;18.822;2023-06-14T12:55:36;0.80;;;0.80;;
53927;SDS011;39837;47.630;18.822;2023-06-14T12:58:21;1.37;;;1.37;;
53927;SDS011;39837;47.630;18.822;2023-06-14T13:01:07;1.23;;;1.23;;
53927;SDS011;39837;47.630;18.822;2023-06-14T13:03:51;1.25;;;1.20;;
53927;SDS011;39837;47.630;18.822;2023-06-14T13:06:37;2.88;;;1.33;;
53927;SDS011;39837;47.630;18.822;2023-06-14T13:09:21;1.23;;;1.15;;
53927;SDS011;39837;47.630;18.822;2023-06-14T13:12:06;1.90;;;1.17;;
53927;SDS011;39837;47.630;18.822;2023-06-14T13:14:51;1.63;;;1.52;;
53927;SDS011;39837;47.630;18.822;2023-06-14T13:17:35;1.65;;;1.55;;
53927;SDS011;39837;47.630;18.822;2023-06-14T13:20:22;1.75;;;1.65;;
53927;SDS011;39837;47.630;18.822;2023-06-14T13:23:07;3.10;;;2.30;;
53927;SDS011;39837;47.630;18.822;2023-06-14T13:25:51;1.70;;;1.60;;
53927;SDS011;39837;47.630;18.822;2023-06-14T13:28:36;1.20;;;1.20;;
53927;SDS011;39837;47.630;18.822;2023-06-14T13:31:20;4.80;;;1.40;;
53927;SDS011;39837;47.630;18.822;2023-06-14T13:34:04;6.60;;;1.75;;
53927;SDS011;39837;47.630;18.822;2023-06-14T13:36:49;1.33;;;1.23;;
53927;SDS011;39837;47.630;18.822;2023-06-14T13:39:33;3.03;;;2.23;;
53927;SDS011;39837;47.630;18.822;2023-06-14T13:42:22;0.98;;;0.98;;
53927;SDS011;39837;47.630;18.822;2023-06-14T13:47:50;1.38;;;1.33;;
53927;SDS011;39837;47.630;18.822;2023-06-14T13:50:35;13.55;;;1.35;;
53927;SDS011;39837;47.630;18.822;2023-06-14T13:53:19;2.45;;;1.48;;
53927;SDS011;39837;47.630;18.822;2023-06-14T13:56:04;1.05;;;1.05;;
53927;SDS011;39837;47.630;18.822;2023-06-14T13:58:48;6.72;;;1.80;;
53927;SDS011;39837;47.630;18.822;2023-06-14T14:01:33;1.45;;;1.45;;
53927;SDS011;39837;47.630;18.822;2023-06-14T14:04:17;2.17;;;1.30;;
53927;SDS011;39837;47.630;18.822;2023-06-14T14:07:02;1.70;;;1.60;;
53927;SDS011;39837;47.630;18.822;2023-06-14T14:09:47;2.92;;;1.65;;
53927;SDS011;39837;47.630;18.822;2023-06-14T14:12:31;1.13;;;1.13;;
53927;SDS011;39837;47.630;18.822;2023-06-14T14:15:15;2.08;;;1.13;;
53927;SDS011;39837;47.630;18.822;2023-06-14T14:17:59;1.30;;;1.30;;
53927;SDS011;39837;47.630;18.822;2023-06-14T14:20:43;1.10;;;1.10;;
53927;SDS011;39837;47.630;18.822;2023-06-14T14:23:27;1.02;;;1.02;;
53927;SDS011;39837;47.630;18.822;2023-06-14T14:26:11;1.10;;;1.10;;
53927;SDS011;39837;47.630;18.822;2023-06-14T14:28:55;1.10;;;1.08;;
53927;SDS011;39837;47.630;18.822;2023-06-14T14:31:39;1.92;;;1.10;;
53927;SDS011;39837;47.630;18.822;2023-06-14T14:34:26;1.50;;;1.13;;
53927;SDS011;39837;47.630;18.822;2023-06-14T14:37:10;1.67;;;1.58;;
53927;SDS011;39837;47.630;18.822;2023-06-14T14:39:54;1.00;;;1.00;;
53927;SDS011;39837;47.630;18.822;2023-06-14T14:42:38;1.27;;;1.23;;
53927;SDS011;39837;47.630;18.822;2023-06-14T14:45:22;1.20;;;1.08;;
53927;SDS011;39837;47.630;18.822;2023-06-14T14:48:06;1.17;;;1.17;;
53927;SDS011;39837;47.630;18.822;2023-06-14T14:50:51;1.00;;;1.00;;
53927;SDS011;39837;47.630;18.822;2023-06-14T14:53:35;1.42;;;1.38;;
53927;SDS011;39837;47.630;18.822;2023-06-14T14:56:19;1.75;;;1.65;;
53927;SDS011;39837;47.630;18.822;2023-06-14T14:59:03;3.00;;;1.50;;
53927;SDS011;39837;47.630;18.822;2023-06-14T15:01:47;1.20;;;1.20;;
53927;SDS011;39837;47.630;18.822;2023-06-14T15:04:31;1.60;;;1.50;;
53927;SDS011;39837;47.630;18.822;2023-06-14T15:07:15;0.90;;;0.90;;
53927;SDS011;39837;47.630;18.822;2023-06-14T15:09:59;1.00;;;1.00;;
53927;SDS011;39837;47.630;18.822;2023-06-14T15:12:44;1.95;;;1.10;;
53927;SDS011;39837;47.630;18.822;2023-06-14T15:15:28;1.73;;;1.63;;
53927;SDS011;39837;47.630;18.822;2023-06-14T15:18:12;1.52;;;1.40;;
53927;SDS011;39837;47.630;18.822;2023-06-14T15:20:57;1.73;;;1.63;;
53927;SDS011;39837;47.630;18.822;2023-06-14T15:23:42;1.40;;;1.30;;
53927;SDS011;39837;47.630;18.822;2023-06-14T15:26:26;0.93;;;0.93;;
53927;SDS011;39837;47.630;18.822;2023-06-14T15:29:10;1.33;;;1.25;;
53927;SDS011;39837;47.630;18.822;2023-06-14T15:31:54;2.40;;;1.42;;
53927;SDS011;39837;47.630;18.822;2023-06-14T15:34:41;1.73;;;1.63;;
53927;SDS011;39837;47.630;18.822;2023-06-14T15:37:25;1.30;;;1.30;;
53927;SDS011;39837;47.630;18.822;2023-06-14T15:40:09;2.00;;;1.90;;
53927;SDS011;39837;47.630;18.822;2023-06-14T15:42:53;1.30;;;1.30;;
53927;SDS011;39837;47.630;18.822;2023-06-14T15:45:37;1.48;;;1.38;;
53927;SDS011;39837;47.630;18.822;2023-06-14T15:48:23;2.33;;;1.88;;
53927;SDS011;39837;47.630;18.822;2023-06-14T15:51:06;1.95;;;1.67;;
53927;SDS011;39837;47.630;18.822;2023-06-14T15:53:51;1.10;;;1.10;;
53927;SDS011;39837;47.630;18.822;2023-06-14T15:56:35;1.13;;;1.13;;
53927;SDS011;39837;47.630;18.822;2023-06-14T15:59:20;0.75;;;0.75;;
53927;SDS011;39837;47.630;18.822;2023-06-14T16:02:04;1.20;;;1.20;;
53927;SDS011;39837;47.630;18.822;2023-06-14T16:04:49;1.40;;;1.40;;
53927;SDS011;39837;47.630;18.822;2023-06-14T16:07:33;2.50;;;1.65;;
53927;SDS011;39837;47.630;18.822;2023-06-14T16:10:17;1.15;;;1.15;;
53927;SDS011;39837;47.630;18.822;2023-06-14T16:13:01;1.60;;;1.10;;
53927;SDS011;39837;47.630;18.822;2023-06-14T16:15:45;2.25;;;1.23;;
53927;SDS011;39837;47.630;18.822;2023-06-14T16:18:29;1.30;;;1.30;;
53927;SDS011;39837;47.630;18.822;2023-06-14T16:21:13;3.67;;;1.38;;
53927;SDS011;39837;47.630;18.822;2023-06-14T16:23:57;12.30;;;1.83;;
53927;SDS011;39837;47.630;18.822;2023-06-14T16:26:41;1.48;;;1.48;;
53927;SDS011;39837;47.630;18.822;2023-06-14T16:29:26;1.27;;;1.27;;
53927;SDS011;39837;47.630;18.822;2023-06-14T16:32:10;1.10;;;1.10;;
53927;SDS011;39837;47.630;18.822;2023-06-14T16:34:54;1.95;;;1.30;;
53927;SDS011;39837;47.630;18.822;2023-06-14T16:37:38;1.40;;;1.20;;
53927;SDS011;39837;47.630;18.822;2023-06-14T16:40:22;1.63;;;1.20;;
53927;SDS011;39837;47.630;18.822;2023-06-14T16:43:06;1.23;;;1.23;;
53927;SDS011;39837;47.630;18.822;2023-06-14T16:45:50;1.20;;;1.20;;
53927;SDS011;39837;47.630;18.822;2023-06-14T16:48:34;1.27;;;1.17;;
53927;SDS011;39837;47.630;18.822;2023-06-14T16:51:18;1.17;;;1.17;;
53927;SDS011;39837;47.630;18.822;2023-06-14T16:54:02;3.35;;;1.42;;
53927;SDS011;39837;47.630;18.822;2023-06-14T16:56:47;4.53;;;1.55;;
53927;SDS011;39837;47.630;18.822;2023-06-14T16:59:31;1.60;;;1.50;;
53927;SDS011;39837;47.630;18.822;2023-06-14T17:02:15;1.60;;;1.50;;
53927;SDS011;39837;47.630;18.822;2023-06-14T17:04:58;3.75;;;1.45;;
53927;SDS011;39837;47.630;18.822;2023-06-14T17:07:43;1.73;;;1.63;;
53927;SDS011;39837;47.630;18.822;2023-06-14T17:10:27;1.20;;;1.20;;
53927;SDS011;39837;47.630;18.822;2023-06-14T17:13:11;2.80;;;1.92;;
53927;SDS011;39837;47.630;18.822;2023-06-14T17:15:56;1.27;;;1.27;;
53927;SDS011;39837;47.630;18.822;2023-06-14T17:18:40;1.23;;;1.20;;
53927;SDS011;39837;47.630;18.822;2023-06-14T17:21:24;1.30;;;1.30;;
53927;SDS011;39837;47.630;18.822;2023-06-14T17:24:08;1.10;;;1.10;;
53927;SDS011;39837;47.630;18.822;2023-06-14T17:26:52;1.23;;;1.23;;
53927;SDS011;39837;47.630;18.822;2023-06-14T17:29:38;1.80;;;1.70;;
53927;SDS011;39837;47.630;18.822;2023-06-14T17:32:22;1.60;;;1.50;;
53927;SDS011;39837;47.630;18.822;2023-06-14T17:35:07;1.50;;;1.40;;
53927;SDS011;39837;47.630;18.822;2023-06-14T17:37:52;1.73;;;1.17;;
53927;SDS011;39837;47.630;18.822;2023-06-14T17:40:35;1.50;;;1.40;;
53927;SDS011;39837;47.630;18.822;2023-06-14T17:43:20;1.50;;;1.50;;
53927;SDS011;39837;47.630;18.822;2023-06-14T17:46:05;1.50;;;1.45;;
53927;SDS011;39837;47.630;18.822;2023-06-14T17:48:49;1.60;;;1.60;;
53927;SDS011;39837;47.630;18.822;2023-06-14T17:51:34;1.00;;;1.00;;
53927;SDS011;39837;47.630;18.822;2023-06-14T17:54:18;2.50;;;1.85;;
53927;SDS011;39837;47.630;18.822;2023-06-14T17:57:02;1.65;;;1.55;;
53927;SDS011;39837;47.630;18.822;2023-06-14T17:59:46;1.48;;;1.45;;
53927;SDS011;39837;47.630;18.822;2023-06-14T18:02:30;1.50;;;1.50;;
53927;SDS011;39837;47.630;18.822;2023-06-14T18:05:15;1.75;;;1.50;;
53927;SDS011;39837;47.630;18.822;2023-06-14T18:07:59;1.73;;;1.63;;
53927;SDS011;39837;47.630;18.822;2023-06-14T18:10:44;1.20;;;1.20;;
53927;SDS011;39837;47.630;18.822;2023-06-14T18:13:28;1.40;;;1.35;;
53927;SDS011;39837;47.630;18.822;2023-06-14T18:16:12;2.60;;;2.05;;
53927;SDS011;39837;47.630;18.822;2023-06-14T18:18:57;1.90;;;1.80;;
53927;SDS011;39837;47.630;18.822;2023-06-14T18:21:41;9.98;;;1.85;;
53927;SDS011;39837;47.630;18.822;2023-06-14T18:24:25;1.60;;;1.60;;
53927;SDS011;39837;47.630;18.822;2023-06-14T18:27:10;9.15;;;1.55;;
53927;SDS011;39837;47.630;18.822;2023-06-14T18:29:54;1.70;;;1.70;;
53927;SDS011;39837;47.630;18.822;2023-06-14T18:32:39;1.48;;;1.48;;
53927;SDS011;39837;47.630;18.822;2023-06-14T18:35:24;1.73;;;1.63;;
53927;SDS011;39837;47.630;18.822;2023-06-14T18:38:08;2.05;;;1.95;;
53927;SDS011;39837;47.630;18.822;2023-06-14T18:40:52;2.30;;;2.20;;
53927;SDS011;39837;47.630;18.822;2023-06-14T18:43:37;2.20;;;2.10;;
53927;SDS011;39837;47.630;18.822;2023-06-14T18:46:21;14.02;;;2.15;;
53927;SDS011;39837;47.630;18.822;2023-06-14T18:49:06;1.73;;;1.73;;
53927;SDS011;39837;47.630;18.822;2023-06-14T18:51:50;2.42;;;2.22;;
53927;SDS011;39837;47.630;18.822;2023-06-14T18:54:34;2.38;;;2.28;;
53927;SDS011;39837;47.630;18.822;2023-06-14T18:57:18;2.38;;;2.17;;
53927;SDS011;39837;47.630;18.822;2023-06-14T19:00:04;2.70;;;2.50;;
53927;SDS011;39837;47.630;18.822;2023-06-14T19:02:49;1.87;;;1.87;;
53927;SDS011;39837;47.630;18.822;2023-06-14T19:05:33;2.35;;;2.25;;
53927;SDS011;39837;47.630;18.822;2023-06-14T19:08:17;3.03;;;2.45;;
53927;SDS011;39837;47.630;18.822;2023-06-14T19:11:01;2.10;;;2.00;;
53927;SDS011;39837;47.630;18.822;2023-06-14T19:13:45;2.53;;;1.98;;
53927;SDS011;39837;47.630;18.822;2023-06-14T19:16:30;1.95;;;1.85;;
53927;SDS011;39837;47.630;18.822;2023-06-14T19:19:14;2.70;;;2.47;;
53927;SDS011;39837;47.630;18.822;2023-06-14T19:21:58;2.17;;;2.08;;
53927;SDS011;39837;47.630;18.822;2023-06-14T19:24:42;2.28;;;2.17;;
53927;SDS011;39837;47.630;18.822;2023-06-14T19:27:26;1.63;;;1.63;;
53927;SDS011;39837;47.630;18.822;2023-06-14T19:30:11;3.97;;;2.70;;
53927;SDS011;39837;47.630;18.822;2023-06-14T19:32:55;2.75;;;2.55;;
53927;SDS011;39837;47.630;18.822;2023-06-14T19:35:40;2.80;;;2.42;;
53927;SDS011;39837;47.630;18.822;2023-06-14T19:38:24;2.35;;;2.25;;
53927;SDS011;39837;47.630;18.822;2023-06-14T19:41:09;2.58;;;2.45;;
53927;SDS011;39837;47.630;18.822;2023-06-14T19:43:53;2.63;;;2.47;;
53927;SDS011;39837;47.630;18.822;2023-06-14T19:46:37;2.88;;;2.70;;
53927;SDS011;39837;47.630;18.822;2023-06-14T19:49:21;2.65;;;2.47;;
53927;SDS011;39837;47.630;18.822;2023-06-14T19:52:06;2.45;;;2.30;;
53927;SDS011;39837;47.630;18.822;2023-06-14T19:54:50;2.10;;;2.00;;
53927;SDS011;39837;47.630;18.822;2023-06-14T19:57:34;2.22;;;2.13;;
53927;SDS011;39837;47.630;18.822;2023-06-14T20:00:18;2.08;;;1.98;;
53927;SDS011;39837;47.630;18.822;2023-06-14T20:03:02;2.22;;;2.10;;
53927;SDS011;39837;47.630;18.822;2023-06-14T20:05:47;2.10;;;2.10;;
53927;SDS011;39837;47.630;18.822;2023-06-14T20:08:32;3.58;;;2.53;;
53927;SDS011;39837;47.630;18.822;2023-06-14T20:11:16;9.07;;;2.72;;
53927;SDS011;39837;47.630;18.822;2023-06-14T20:14:01;3.10;;;2.92;;
53927;SDS011;39837;47.630;18.822;2023-06-14T20:16:45;3.22;;;2.33;;
53927;SDS011;39837;47.630;18.822;2023-06-14T20:19:29;3.00;;;2.78;;
53927;SDS011;39837;47.630;18.822;2023-06-14T20:22:13;2.63;;;2.53;;
53927;SDS011;39837;47.630;18.822;2023-06-14T20:24:57;4.53;;;2.60;;
53927;SDS011;39837;47.630;18.822;2023-06-14T20:27:41;2.17;;;2.08;;
53927;SDS011;39837;47.630;18.822;2023-06-14T20:30:25;2.42;;;2.33;;
53927;SDS011;39837;47.630;18.822;2023-06-14T20:33:09;2.20;;;2.10;;
53927;SDS011;39837;47.630;18.822;2023-06-14T20:35:53;1.98;;;1.88;;
53927;SDS011;39837;47.630;18.822;2023-06-14T20:38:37;2.15;;;2.03;;
53927;SDS011;39837;47.630;18.822;2023-06-14T20:41:21;2.42;;;2.33;;
53927;SDS011;39837;47.630;18.822;2023-06-14T20:44:05;3.10;;;2.90;;
53927;SDS011;39837;47.630;18.822;2023-06-14T20:46:49;3.47;;;2.67;;
53927;SDS011;39837;47.630;18.822;2023-06-14T20:49:33;2.35;;;2.35;;
53927;SDS011;39837;47.630;18.822;2023-06-14T20:52:19;3.55;;;3.25;;
53927;SDS011;39837;47.630;18.822;2023-06-14T20:55:03;2.88;;;2.78;;
53927;SDS011;39837;47.630;18.822;2023-06-14T20:57:48;2.80;;;2.60;;
53927;SDS011;39837;47.630;18.822;2023-06-14T21:00:32;2.30;;;2.20;;
53927;SDS011;39837;47.630;18.822;2023-06-14T21:03:16;2.88;;;2.70;;
53927;SDS011;39837;47.630;18.822;2023-06-14T21:06:01;2.05;;;1.95;;
53927;SDS011;39837;47.630;18.822;2023-06-14T21:08:47;4.43;;;3.00;;
53927;SDS011;39837;47.630;18.822;2023-06-14T21:11:31;3.17;;;2.97;;
53927;SDS011;39837;47.630;18.822;2023-06-14T21:14:15;2.58;;;2.47;;
53927;SDS011;39837;47.630;18.822;2023-06-14T21:16:59;3.22;;;2.97;;
53927;SDS011;39837;47.630;18.822;2023-06-14T21:19:44;2.17;;;2.13;;
53927;SDS011;39837;47.630;18.822;2023-06-14T21:22:27;2.80;;;2.67;;
53927;SDS011;39837;47.630;18.822;2023-06-14T21:25:12;2.42;;;2.28;;
53927;SDS011;39837;47.630;18.822;2023-06-14T21:27:56;3.20;;;3.00;;
53927;SDS011;39837;47.630;18.822;2023-06-14T21:30:40;2.92;;;2.72;;
53927;SDS011;39837;47.630;18.822;2023-06-14T21:33:24;6.80;;;2.80;;
53927;SDS011;39837;47.630;18.822;2023-06-14T21:36:08;2.83;;;2.72;;
53927;SDS011;39837;47.630;18.822;2023-06-14T21:38:51;2.70;;;2.55;;
53927;SDS011;39837;47.630;18.822;2023-06-14T21:41:35;3.50;;;3.20;;
53927;SDS011;39837;47.630;18.822;2023-06-14T21:44:21;3.83;;;2.97;;
53927;SDS011;39837;47.630;18.822;2023-06-14T21:47:06;3.03;;;2.83;;
53927;SDS011;39837;47.630;18.822;2023-06-14T21:49:50;11.52;;;3.38;;
53927;SDS011;39837;47.630;18.822;2023-06-14T21:52:34;2.97;;;2.78;;
53927;SDS011;39837;47.630;18.822;2023-06-14T21:55:18;3.15;;;2.90;;
53927;SDS011;39837;47.630;18.822;2023-06-14T21:58:06;2.95;;;2.75;;
53927;SDS011;39837;47.630;18.822;2023-06-14T22:00:51;4.80;;;2.55;;
53927;SDS011;39837;47.630;18.822;2023-06-14T22:03:35;3.35;;;2.80;;
53927;SDS011;39837;47.630;18.822;2023-06-14T22:06:19;2.45;;;2.35;;
53927;SDS011;39837;47.630;18.822;2023-06-14T22:09:03;4.40;;;3.65;;
53927;SDS011;39837;47.630;18.822;2023-06-14T22:11:47;3.75;;;3.45;;
53927;SDS011;39837;47.630;18.822;2023-06-14T22:14:33;2.28;;;2.22;;
53927;SDS011;39837;47.630;18.822;2023-06-14T22:17:17;2.47;;;2.38;;
53927;SDS011;39837;47.630;18.822;2023-06-14T22:20:05;2.85;;;2.75;;
53927;SDS011;39837;47.630;18.822;2023-06-14T22:22:51;5.15;;;2.88;;
53927;SDS011;39837;47.630;18.822;2023-06-14T22:25:35;3.20;;;3.00;;
53927;SDS011;39837;47.630;18.822;2023-06-14T22:28:19;2.47;;;2.38;;
53927;SDS011;39837;47.630;18.822;2023-06-14T22:31:07;3.67;;;3.38;;
53927;SDS011;39837;47.630;18.822;2023-06-14T22:33:53;3.25;;;3.03;;
53927;SDS011;39837;47.630;18.822;2023-06-14T22:36:37;3.05;;;2.92;;
53927;SDS011;39837;47.630;18.822;2023-06-14T22:39:22;2.47;;;2.28;;
53927;SDS011;39837;47.630;18.822;2023-06-14T22:42:06;2.60;;;2.50;;
53927;SDS011;39837;47.630;18.822;2023-06-14T22:44:50;3.58;;;3.38;;
53927;SDS011;39837;47.630;18.822;2023-06-14T22:47:34;3.40;;;3.20;;
53927;SDS011;39837;47.630;18.822;2023-06-14T22:50:18;16.73;;;2.80;;
53927;SDS011;39837;47.630;18.822;2023-06-14T22:53:03;3.65;;;3.35;;
53927;SDS011;39837;47.630;18.822;2023-06-14T22:55:47;3.13;;;2.92;;
53927;SDS011;39837;47.630;18.822;2023-06-14T22:58:31;3.20;;;3.00;;
53927;SDS011;39837;47.630;18.822;2023-06-14T23:01:17;5.28;;;3.28;;
53927;SDS011;39837;47.630;18.822;2023-06-14T23:04:01;3.28;;;2.97;;
53927;SDS011;39837;47.630;18.822;2023-06-14T23:06:46;2.25;;;2.15;;
53927;SDS011;39837;47.630;18.822;2023-06-14T23:09:31;5.03;;;2.80;;
53927;SDS011;39837;47.630;18.822;2023-06-14T23:12:15;2.45;;;2.35;;
53927;SDS011;39837;47.630;18.822;2023-06-14T23:14:59;2.60;;;2.50;;
53927;SDS011;39837;47.630;18.822;2023-06-14T23:17:46;2.60;;;2.50;;
53927;SDS011;39837;47.630;18.822;2023-06-14T23:20:33;2.95;;;2.75;;
53927;SDS011;39837;47.630;18.822;2023-06-14T23:23:19;3.58;;;2.90;;
53927;SDS011;39837;47.630;18.822;2023-06-14T23:26:04;12.70;;;3.92;;
53927;SDS011;39837;47.630;18.822;2023-06-14T23:28:51;2.95;;;2.75;;
53927;SDS011;39837;47.630;18.822;2023-06-14T23:31:39;2.78;;;2.58;;
53927;SDS011;39837;47.630;18.822;2023-06-14T23:34:24;2.55;;;2.45;;
53927;SDS011;39837;47.630;18.822;2023-06-14T23:37:09;6.05;;;3.20;;
53927;SDS011;39837;47.630;18.822;2023-06-14T23:39:55;2.40;;;2.30;;
53927;SDS011;39837;47.630;18.822;2023-06-14T23:42:40;3.00;;;2.80;;
53927;SDS011;39837;47.630;18.822;2023-06-14T23:45:24;2.70;;;2.60;;
53927;SDS011;39837;47.630;18.822;2023-06-14T23:48:08;2.85;;;2.65;;
53927;SDS011;39837;47.630;18.822;2023-06-14T23:50:52;3.50;;;3.20;;
53927;SDS011;39837;47.630;18.822;2023-06-14T23:53:37;4.88;;;3.35;;
53927;SDS011;39837;47.630;18.822;2023-06-14T23:56:21;6.70;;;3.22;;
53927;SDS011;39837;47.630;18.822;2023-06-14T23:59:08;3.13;;;2.92;;
